Time;durP1;ratioP1;P1;durP2;ratioP2;P2;SDS_P1;SDS_P2;PMS_P1;PMS_P2;Temp;Humidity;BMP_temperature;BMP_pressure;BME280_temperature;BME280_humidity;BME280_pressure;Samples;Min_cycle;Max_cycle;Signal;HPM_P1;HPM_P2
2022/03/18 00:01:32;;;;;;;10.05;6.78;;;7.70;99.90;;;7.77;72.55;103119.41;4973172;28;20230;-72
2022/03/18 00:04:03;;;;;;;10.77;6.43;;;7.70;99.90;;;7.76;72.40;103115.00;4973300;28;20262;-72
2022/03/18 00:06:32;;;;;;;10.07;6.82;;;7.80;99.90;;;7.82;72.29;103122.56;4973044;28;20565;-73
2022/03/18 00:09:01;;;;;;;13.35;6.85;;;7.80;99.90;;;7.72;72.33;103127.03;4972900;28;20180;-73
2022/03/18 00:11:32;;;;;;;11.48;6.55;;;7.80;99.90;;;7.64;72.73;103126.84;4972583;28;20231;-72
2022/03/18 00:14:02;;;;;;;9.63;7.20;;;7.70;99.90;;;7.73;72.57;103124.22;4972632;28;20219;-71
2022/03/18 00:16:31;;;;;;;13.13;7.13;;;7.70;99.90;;;7.63;72.76;103127.81;4972381;28;20184;-74
2022/03/18 00:19:01;;;;;;;18.92;11.93;;;7.70;99.90;;;7.64;72.75;103133.09;4972382;28;20543;-74
2022/03/18 00:21:30;;;;;;;12.35;9.82;;;7.60;99.90;;;7.76;72.61;103126.63;4972707;28;20195;-72
2022/03/18 00:23:59;;;;;;;15.77;7.68;;;7.70;99.90;;;7.68;72.76;103125.59;4976013;28;20211;-73
2022/03/18 00:26:28;;;;;;;14.93;7.10;;;7.70;99.90;;;7.66;72.59;103141.88;4972892;28;20227;-71
2022/03/18 00:29:00;;;;;;;15.27;6.40;;;7.70;99.90;;;7.60;72.75;103141.56;4954662;28;20195;-71
2022/03/18 00:31:31;;;;;;;14.27;6.60;;;7.60;99.90;;;7.70;72.76;103140.63;4971541;28;20340;-73
2022/03/18 00:34:01;;;;;;;9.38;7.03;;;7.60;99.90;;;7.77;72.45;103138.28;4972632;28;20740;-73
2022/03/18 00:36:30;;;;;;;12.50;6.22;;;7.70;99.90;;;7.70;72.57;103146.00;4972402;28;20234;-72
2022/03/18 00:39:00;;;;;;;17.30;7.53;;;7.70;99.90;;;7.76;72.76;103150.03;4972293;28;20349;-71
2022/03/18 00:41:29;;;;;;;10.80;7.72;;;7.70;99.90;;;7.65;73.09;103150.94;4972140;28;20320;-72
2022/03/18 00:44:00;;;;;;;10.63;6.45;;;7.70;99.90;;;7.69;72.82;103151.56;4972446;28;20168;-72
2022/03/18 00:46:30;;;;;;;12.57;7.22;;;7.70;99.90;;;7.67;72.76;103148.13;4970759;28;20199;-71
2022/03/18 00:52:05;;;;;;;9.35;7.22;;;7.60;99.90;;;7.60;73.13;103155.84;4972311;28;20207;-72
2022/03/18 00:54:36;;;;;;;10.02;7.40;;;7.60;99.90;;;7.65;72.95;103159.03;4972036;28;20249;-72
2022/03/18 00:57:06;;;;;;;14.13;6.60;;;7.60;99.90;;;7.79;72.50;103160.59;4954893;28;20428;-71
2022/03/18 00:59:37;;;;;;;19.15;7.47;;;7.70;99.90;;;7.75;72.62;103154.56;4971995;28;20211;-70
2022/03/18 01:02:06;;;;;;;24.38;7.53;;;7.70;99.90;;;7.65;72.88;103160.88;4971849;28;20558;-71
2022/03/18 01:04:36;;;;;;;9.13;6.47;;;7.70;99.90;;;7.76;72.41;103166.22;4972166;28;20198;-74
2022/03/18 01:07:05;;;;;;;13.73;7.05;;;7.70;99.90;;;7.69;72.83;103165.03;4954801;28;20375;-72
2022/03/18 01:09:34;;;;;;;10.05;5.55;;;7.70;99.90;;;7.66;72.64;103171.53;4971608;28;20277;-72
2022/03/18 01:12:04;;;;;;;9.82;6.10;;;7.70;99.90;;;7.59;72.54;103174.88;4971824;28;20190;-72
2022/03/18 01:14:33;;;;;;;11.80;6.78;;;7.60;99.90;;;7.63;72.50;103173.63;4971936;28;20222;-73
2022/03/18 01:17:04;;;;;;;14.23;6.40;;;7.60;99.90;;;7.59;72.76;103173.03;4971611;28;20631;-71
2022/03/18 01:19:33;;;;;;;15.32;6.85;;;7.60;99.90;;;7.51;72.85;103177.31;4971494;28;20221;-71
2022/03/18 01:22:02;;;;;;;13.00;6.97;;;7.50;99.90;;;7.54;72.76;103177.09;4971589;28;20191;-73
2022/03/18 01:24:31;;;;;;;10.10;6.18;;;7.60;99.90;;;7.54;72.69;103185.16;4971661;28;20242;-73
2022/03/18 01:27:00;;;;;;;11.40;6.97;;;7.60;99.90;;;7.57;72.33;103180.38;4954410;28;20254;-72
2022/03/18 01:29:29;;;;;;;9.40;6.25;;;7.60;99.90;;;7.55;72.34;103187.72;4972161;28;20626;-72
2022/03/18 01:31:59;;;;;;;13.27;6.75;;;7.50;99.90;;;7.52;72.39;103189.81;4971879;28;20223;-72
2022/03/18 01:34:29;;;;;;;12.45;6.03;;;7.50;99.90;;;7.49;72.65;103190.06;4972418;28;20192;-71
2022/03/18 01:36:58;;;;;;;14.05;7.03;;;7.50;99.90;;;7.42;72.33;103195.97;4972180;28;20612;-72
2022/03/18 01:39:28;;;;;;;11.77;6.00;;;7.50;99.90;;;7.46;72.58;103195.69;4974142;28;20215;-71
2022/03/18 01:41:57;;;;;;;11.27;6.25;;;7.40;99.90;;;7.48;72.52;103193.75;4977071;28;20180;-73
2022/03/18 01:44:26;;;;;;;12.90;6.50;;;7.50;99.90;;;7.51;72.11;103193.47;4977695;28;20398;-73
2022/03/18 01:46:55;;;;;;;13.30;5.90;;;7.50;99.90;;;7.47;72.53;103190.19;4958498;28;20214;-74
2022/03/18 01:49:24;;;;;;;15.43;7.00;;;7.50;99.90;;;7.41;72.21;103201.47;4975494;28;20297;-72
2022/03/18 01:51:54;;;;;;;13.45;4.80;;;7.40;99.90;;;7.38;72.20;103207.97;4975387;28;20211;-72
2022/03/18 01:57:10;;;;;;;13.50;5.80;;;7.50;99.90;;;7.46;71.94;103206.47;4975549;28;20200;-71
2022/03/18 01:59:39;;;;;;;13.85;6.07;;;7.40;99.90;;;7.43;71.96;103208.47;4974765;28;20222;-72
2022/03/18 02:02:09;;;;;;;12.88;5.70;;;7.40;99.90;;;7.45;71.66;103211.03;4976325;28;20669;-73
2022/03/18 02:04:39;;;;;;;17.85;5.55;;;7.40;99.90;;;7.40;71.93;103205.16;4976419;28;20219;-73
2022/03/18 02:07:09;;;;;;;9.45;4.95;;;7.40;99.90;;;7.47;71.43;103214.44;4975912;28;20188;-73
2022/03/18 02:09:40;;;;;;;9.00;5.05;;;7.40;99.90;;;7.41;71.54;103215.81;4975972;28;20586;-72
2022/03/18 02:12:11;;;;;;;13.50;5.57;;;7.40;99.90;;;7.47;71.39;103213.59;4975338;28;20191;-72
2022/03/18 02:14:44;;;;;;;10.75;5.40;;;7.50;99.90;;;7.47;71.48;103221.66;4975633;28;20207;-72
2022/03/18 02:17:15;;;;;;;14.65;5.80;;;7.50;99.90;;;7.46;71.73;103226.19;4976746;28;20190;-71
2022/03/18 02:19:48;;;;;;;10.15;4.82;;;7.50;99.90;;;7.51;70.81;103236.59;4978132;28;20207;-72
2022/03/18 02:22:21;;;;;;;12.45;5.43;;;7.50;99.90;;;7.54;70.47;103230.97;4978071;28;20172;-71
2022/03/18 02:24:54;;;;;;;9.18;5.30;;;7.50;99.90;;;7.43;70.81;103238.09;4981758;28;20729;-73
2022/03/18 02:27:24;;;;;;;7.65;4.97;;;7.50;99.90;;;7.46;70.74;103238.81;4983044;28;20195;-73
2022/03/18 02:29:53;;;;;;;8.00;5.40;;;7.50;99.90;;;7.47;70.58;103235.13;4982280;28;20455;-73
2022/03/18 02:32:23;;;;;;;11.05;5.40;;;7.40;99.90;;;7.50;69.95;103237.59;4983507;28;20674;-72
2022/03/18 02:34:52;;;;;;;7.80;4.15;;;7.50;99.90;;;7.41;70.46;103234.66;4985736;28;20220;-71
2022/03/18 02:37:21;;;;;;;18.92;5.68;;;7.50;99.90;;;7.43;70.14;103246.19;4987684;28;20242;-73
2022/03/18 02:39:52;;;;;;;12.60;5.50;;;7.40;99.90;;;7.43;70.00;103243.50;4980219;28;20623;-72
2022/03/18 02:42:21;;;;;;;6.88;4.05;;;7.50;99.90;;;7.41;69.97;103245.44;4974532;28;20195;-72
2022/03/18 02:44:50;;;;;;;11.45;5.32;;;7.50;99.90;;;7.50;69.70;103256.47;4976136;28;20242;-72
2022/03/18 02:47:19;;;;;;;10.90;5.88;;;7.50;99.90;;;7.57;69.42;103263.06;4982692;28;20198;-74
2022/03/18 02:49:48;;;;;;;11.73;5.20;;;7.50;99.90;;;7.51;69.38;103259.00;4983115;28;20215;-71
2022/03/18 02:52:17;;;;;;;10.07;3.60;;;7.50;99.90;;;7.38;69.40;103264.56;4981507;28;20199;-74
2022/03/18 02:54:47;;;;;;;9.75;4.50;;;7.40;99.90;;;7.36;69.40;103265.66;4985871;28;20223;-73
2022/03/18 02:57:17;;;;;;;13.32;5.18;;;7.40;99.90;;;7.45;69.25;103267.63;4986341;28;20758;-72
2022/03/18 02:59:46;;;;;;;12.85;4.97;;;7.40;99.90;;;7.34;69.46;103270.31;4984589;28;20217;-72
2022/03/18 03:02:15;;;;;;;15.82;5.10;;;7.40;99.90;;;7.40;69.45;103275.22;4980692;28;20658;-73
2022/03/18 03:10:14;;;;;;;18.70;6.68;;;7.50;99.90;;;7.46;69.09;103281.91;4974509;28;20212;-71
2022/03/18 03:12:45;;;;;;;18.67;5.20;;;7.50;99.90;;;7.52;68.64;103286.81;4974366;28;20541;-72
2022/03/18 03:15:14;;;;;;;11.25;4.30;;;7.50;99.90;;;7.39;68.82;103297.75;4974906;28;20200;-73
2022/03/18 03:17:43;;;;;;;8.93;3.97;;;7.40;99.90;;;7.31;68.96;103294.81;4974675;28;20176;-74
2022/03/18 03:20:13;;;;;;;14.95;4.57;;;7.40;99.90;;;7.35;69.04;103291.75;4974519;28;20218;-72
2022/03/18 03:22:42;;;;;;;12.88;5.05;;;7.40;99.90;;;7.39;68.58;103300.44;4973196;28;20567;-73
2022/03/18 03:25:11;;;;;;;12.60;4.20;;;7.40;99.90;;;7.36;68.77;103309.59;4974859;28;20643;-72
2022/03/18 03:27:41;;;;;;;20.05;5.35;;;7.40;99.90;;;7.32;68.85;103310.84;4974154;28;20202;-71
2022/03/18 03:30:13;;;;;;;10.82;4.82;;;7.40;99.90;;;7.33;68.45;103320.63;4974785;28;20203;-73
2022/03/18 03:32:42;;;;;;;11.15;3.95;;;7.30;99.90;;;7.33;68.65;103303.63;4973461;28;20702;-73
2022/03/18 03:35:12;;;;;;;13.07;5.82;;;7.40;99.90;;;7.41;68.79;103314.63;4974166;28;20195;-71
2022/03/18 03:37:41;;;;;;;14.07;4.55;;;7.40;99.90;;;7.30;68.74;103326.28;4973940;28;20187;-74
2022/03/18 03:40:13;;;;;;;15.27;5.38;;;7.40;99.90;;;7.33;68.79;103325.16;4974070;28;20211;-73
2022/03/18 03:42:43;;;;;;;16.05;4.20;;;7.30;99.80;;;7.26;68.50;103324.78;4974698;28;20168;-72
2022/03/18 03:45:14;;;;;;;9.30;3.90;;;7.30;99.20;;;7.37;68.26;103337.41;4974257;28;20195;-73
2022/03/18 03:47:44;;;;;;;15.73;5.25;;;7.40;99.30;;;7.33;68.01;103330.56;4973327;28;20254;-72
2022/03/18 03:50:14;;;;;;;9.77;4.00;;;7.30;98.70;;;7.37;68.02;103343.66;4973789;28;20253;-73
2022/03/18 03:52:43;;;;;;;11.82;4.50;;;7.30;98.80;;;7.37;67.48;103338.25;4972821;28;20192;-72
2022/03/18 03:55:14;;;;;;;9.68;3.45;;;7.40;97.30;;;7.32;67.87;103339.59;4974541;28;20290;-74
2022/03/18 03:57:43;;;;;;;5.88;4.20;;;7.30;97.40;;;7.27;67.90;103331.03;4974854;28;20194;-72
2022/03/18 04:00:15;;;;;;;10.82;4.47;;;7.30;97.40;;;7.23;67.74;103329.56;4974755;28;20215;-72
2022/03/18 04:02:46;;;;;;;17.52;5.40;;;7.20;97.30;;;7.11;68.06;103331.41;4974951;28;20187;-72
2022/03/18 04:05:15;;;;;;;13.30;3.35;;;7.20;96.90;;;7.00;68.49;103336.75;4974175;28;20195;-74
2022/03/18 04:07:46;;;;;;;9.32;4.35;;;7.10;97.90;;;7.17;67.99;103336.28;4974293;28;20187;-72
2022/03/18 04:10:15;;;;;;;8.10;4.32;;;7.20;97.90;;;7.20;68.05;103345.97;4956340;28;20235;-72
2022/03/18 04:12:44;;;;;;;15.10;4.57;;;7.10;97.50;;;7.18;67.68;103340.69;4973425;28;20191;-71
2022/03/18 04:15:15;;;;;;;13.13;4.72;;;7.20;97.00;;;7.07;68.03;103340.69;4973283;28;20653;-71
2022/03/18 04:17:46;;;;;;;10.52;4.35;;;7.10;96.80;;;7.04;68.15;103343.63;4972917;28;20283;-74
2022/03/18 04:20:18;;;;;;;11.88;4.60;;;7.10;97.60;;;7.18;67.72;103347.91;4973188;28;20282;-72
2022/03/18 04:22:47;;;;;;;15.88;4.40;;;7.20;96.50;;;7.05;68.01;103356.13;4955353;28;20179;-73
2022/03/18 04:25:16;;;;;;;19.45;4.07;;;7.10;96.60;;;7.04;68.11;103362.47;4972677;28;20569;-72
2022/03/18 04:27:45;;;;;;;10.00;3.60;;;7.10;96.50;;;6.97;67.90;103370.16;4972413;28;20187;-73
2022/03/18 04:30:16;;;;;;;12.45;5.00;;;7.10;96.00;;;7.00;67.50;103374.47;4972269;28;20618;-73
2022/03/18 04:32:46;;;;;;;14.82;3.83;;;7.00;96.00;;;6.98;67.59;103379.09;4972619;28;20194;-71
2022/03/18 04:35:15;;;;;;;18.90;5.15;;;7.00;95.50;;;6.94;67.84;103383.00;4973301;28;20593;-73
2022/03/18 04:37:44;;;;;;;10.77;3.97;;;7.00;95.80;;;6.97;67.66;103372.84;4973360;28;20641;-74
2022/03/18 04:40:15;;;;;;;11.32;3.47;;;7.00;95.60;;;6.90;67.61;103387.78;4973149;28;20285;-71
2022/03/18 04:42:45;;;;;;;11.27;4.80;;;7.00;95.40;;;6.90;67.78;103382.38;4974970;28;20206;-73
2022/03/18 04:45:16;;;;;;;12.23;4.40;;;7.00;96.10;;;6.77;68.68;103394.22;4976264;28;20255;-73
2022/03/18 04:47:45;;;;;;;14.65;5.93;;;6.90;97.40;;;6.72;68.65;103399.09;4976210;28;20418;-72
2022/03/18 04:50:14;;;;;;;13.02;5.68;;;6.80;98.30;;;6.65;69.22;103401.38;4977519;28;20210;-73
2022/03/18 04:52:43;;;;;;;11.93;4.10;;;6.80;99.00;;;6.53;68.97;103405.84;4975655;28;20218;-73
2022/03/18 04:55:13;;;;;;;18.27;4.63;;;6.70;98.40;;;6.38;69.39;103407.00;4974542;28;20198;-73
2022/03/18 04:57:42;;;;;;;12.02;5.43;;;6.50;99.00;;;6.29;69.52;103413.06;4974072;28;20218;-74
2022/03/18 05:00:13;;;;;;;10.20;3.60;;;6.40;99.70;;;6.18;69.61;103415.69;4973903;28;20219;-72
2022/03/18 05:02:43;;;;;;;14.27;4.20;;;6.30;99.90;;;6.18;69.72;103420.19;4973005;28;20262;-70
2022/03/18 05:05:17;;;;;;;17.05;4.68;;;6.30;99.90;;;6.11;69.52;103414.41;4972368;28;20203;-75
2022/03/18 05:07:52;;;;;;;16.88;5.00;;;6.30;99.90;;;6.03;69.88;103414.09;4972299;28;20199;-72
2022/03/18 05:10:22;;;;;;;19.80;5.90;;;6.20;99.90;;;6.02;70.01;103426.69;4954841;28;20595;-72
2022/03/18 05:12:53;;;;;;;25.02;4.95;;;6.10;99.90;;;5.98;69.85;103421.66;4971936;28;20210;-72
2022/03/18 05:15:23;;;;;;;13.30;3.65;;;6.10;99.90;;;6.02;69.58;103432.06;4973470;28;20293;-72
2022/03/18 05:17:55;;;;;;;14.52;3.90;;;6.10;99.90;;;6.05;69.28;103442.59;4976036;28;20199;-71
2022/03/18 05:20:24;;;;;;;13.80;3.95;;;6.10;99.90;;;6.02;69.31;103441.94;4976066;28;20207;-72
2022/03/18 05:22:54;;;;;;;15.77;4.45;;;6.10;99.90;;;6.05;69.21;103447.13;4976647;28;20191;-74
2022/03/18 05:25:23;;;;;;;13.32;4.95;;;6.10;99.90;;;6.04;69.06;103448.09;4977198;28;20198;-72
2022/03/18 05:27:53;;;;;;;12.73;4.20;;;6.10;99.90;;;6.04;69.11;103456.16;4977176;28;20223;-73
2022/03/18 05:30:23;;;;;;;19.58;3.90;;;6.10;99.50;;;5.94;68.97;103465.84;4976539;28;20234;-73
2022/03/18 05:32:54;;;;;;;11.10;3.47;;;6.00;99.30;;;5.95;68.90;103472.94;4977078;28;20179;-72
2022/03/18 05:35:23;;;;;;;19.15;4.57;;;6.00;99.30;;;5.86;68.74;103476.22;4958311;28;20206;-75
2022/03/18 05:37:52;;;;;;;14.05;3.92;;;6.00;99.50;;;5.79;69.23;103483.03;4975864;28;20246;-74
2022/03/18 05:40:21;;;;;;;17.65;5.45;;;5.90;99.60;;;5.69;69.60;103489.06;4976070;28;20214;-72
2022/03/18 05:42:50;;;;;;;18.45;4.30;;;5.80;99.90;;;5.74;69.54;103490.56;4976596;28;20218;-72
2022/03/18 05:45:20;;;;;;;14.13;4.40;;;5.80;99.90;;;5.78;68.95;103492.91;4965747;28;20196;-72
2022/03/18 05:47:49;;;;;;;14.10;4.28;;;5.80;99.90;;;5.73;69.53;103499.56;4975594;28;20662;-72
2022/03/18 05:50:20;;;;;;;14.75;5.10;;;5.80;99.90;;;5.72;69.30;103497.84;4975730;28;20213;-71
2022/03/18 05:52:49;;;;;;;10.70;4.55;;;5.80;99.90;;;5.73;69.08;103500.44;4974666;28;20188;-72
2022/03/18 05:55:20;;;;;;;10.93;3.92;;;5.80;99.90;;;5.68;69.12;103505.28;4975499;28;20200;-72
2022/03/18 05:57:48;;;;;;;12.48;5.63;;;5.80;99.40;;;5.65;69.02;103514.41;4975726;28;20207;-73
2022/03/18 06:00:18;;;;;;;21.42;5.65;;;5.70;99.60;;;5.71;68.88;103520.34;4975519;28;20211;-71
2022/03/18 06:02:47;;;;;;;13.30;5.68;;;5.70;99.80;;;5.63;69.15;103531.59;4975897;28;20172;-74
2022/03/18 06:05:16;;;;;;;11.25;4.93;;;5.70;99.30;;;5.60;69.11;103524.63;4975726;28;20195;-71
2022/03/18 06:07:47;;;;;;;14.63;5.00;;;5.70;99.50;;;5.55;69.18;103524.06;4975767;28;20631;-73
2022/03/18 06:13:02;;;;;;;11.07;4.18;;;5.60;99.80;;;5.58;68.95;103521.16;4975977;28;20192;-73
2022/03/18 06:15:31;;;;;;;15.00;4.70;;;5.60;99.90;;;5.53;68.98;103526.00;4976002;28;20623;-72
2022/03/18 06:18:04;;;;;;;20.77;4.95;;;5.60;99.90;;;5.57;69.43;103534.69;4975505;28;20203;-71
2022/03/18 06:20:33;;;;;;;16.90;4.65;;;5.60;99.90;;;5.66;68.71;103526.84;4957987;28;20211;-73
2022/03/18 06:23:03;;;;;;;17.50;3.97;;;5.70;99.90;;;5.56;69.18;103541.94;4975914;28;20201;-71
2022/03/18 06:25:32;;;;;;;16.88;4.47;;;5.60;99.50;;;5.54;69.00;103548.34;4975035;28;20184;-70
2022/03/18 06:28:01;;;;;;;10.70;3.75;;;5.60;99.70;;;5.61;68.80;103545.16;4975272;28;20284;-73
2022/03/18 06:30:31;;;;;;;11.90;4.15;;;5.60;99.20;;;5.61;68.81;103553.22;4974971;28;20214;-72
2022/03/18 06:33:00;;;;;;;12.88;3.42;;;5.60;99.90;;;5.82;68.45;103560.72;4975608;28;20198;-74
2022/03/18 06:35:31;;;;;;;8.52;3.83;;;5.80;98.80;;;5.80;68.11;103557.31;4975823;28;20199;-73
2022/03/18 06:38:00;;;;;;;9.57;3.70;;;5.80;97.70;;;5.89;68.21;103571.00;4975155;28;20218;-72
2022/03/18 06:40:30;;;;;;;12.10;3.60;;;5.90;97.90;;;5.99;67.71;103568.53;4974964;28;20212;-72
2022/03/18 06:42:59;;;;;;;15.32;4.25;;;5.90;96.80;;;5.82;67.58;103568.78;4975078;28;20259;-72
2022/03/18 06:45:28;;;;;;;14.63;4.28;;;5.90;95.70;;;5.69;68.22;103574.16;4975037;28;20175;-73
2022/03/18 06:47:57;;;;;;;19.90;3.95;;;5.80;95.70;;;5.72;67.98;103583.84;4974786;28;20603;-71
2022/03/18 06:50:26;;;;;;;9.85;5.10;;;5.80;96.50;;;5.82;67.67;103579.53;4974916;28;20701;-71
2022/03/18 06:52:55;;;;;;;13.65;4.72;;;5.80;96.10;;;5.77;67.85;103581.69;4976187;28;20182;-71
2022/03/18 06:55:25;;;;;;;10.02;3.63;;;5.80;95.60;;;5.80;67.60;103586.88;4975970;28;20662;-74
2022/03/18 06:57:55;;;;;;;10.48;3.55;;;5.80;95.30;;;5.65;67.88;103586.97;4975490;28;20523;-73
2022/03/18 07:00:24;;;;;;;22.65;4.40;;;5.70;95.10;;;5.77;68.08;103593.31;4974419;28;20712;-73
2022/03/18 07:02:53;;;;;;;18.55;4.35;;;5.80;96.20;;;5.90;67.26;103599.59;4974980;28;20200;-73
2022/03/18 07:05:22;;;;;;;10.38;4.15;;;5.90;94.90;;;5.85;67.75;103590.09;4975264;28;20199;-72
2022/03/18 07:07:52;;;;;;;18.10;5.75;;;5.90;95.40;;;6.10;67.29;103606.25;4975800;28;20214;-73
2022/03/18 07:10:21;;;;;;;34.22;19.92;;;6.00;95.10;;;6.12;66.74;103598.97;4973414;28;20314;-75
2022/03/18 07:12:51;;;;;;;28.70;13.48;;;6.10;92.90;;;6.03;66.90;103594.22;4974838;28;20202;-72
2022/03/18 07:15:21;;;;;;;22.33;19.85;;;6.10;91.90;;;6.04;66.79;103596.81;4975994;28;20183;-71
2022/03/18 07:17:59;;;;;;;13.63;4.70;;;6.10;91.90;;;6.37;66.09;103603.47;4975725;28;20661;-72
2022/03/18 07:20:30;;;;;;;11.02;5.80;;;6.30;91.60;;;6.50;65.23;103609.69;4975908;28;20294;-73
2022/03/18 07:23:06;;;;;;;17.50;15.73;;;6.40;87.40;;;6.44;65.44;103607.44;4975487;28;20195;-72
2022/03/18 07:25:37;;;;;;;13.38;7.72;;;6.40;85.10;;;6.31;65.49;103615.50;4975392;28;20254;-74
2022/03/18 07:28:08;;;;;;;18.25;9.50;;;6.30;81.10;;;6.33;65.12;103612.72;4976108;28;20586;-73
2022/03/18 07:30:41;;;;;;;18.00;13.85;;;6.40;80.80;;;6.38;65.60;103615.97;4977354;28;20207;-73
2022/03/18 07:33:11;;;;;;;17.35;6.10;;;6.40;81.80;;;6.38;65.51;103615.97;4981339;28;20189;-74
2022/03/18 07:35:42;;;;;;;18.80;8.07;;;6.40;81.40;;;6.58;64.59;103620.78;4983674;28;20511;-74
2022/03/18 07:38:11;;;;;;;11.32;3.80;;;6.50;78.00;;;6.46;65.13;103609.06;4990282;28;20198;-73
2022/03/18 07:40:41;;;;;;;18.52;4.88;;;6.50;76.20;;;6.55;65.21;103623.66;4979438;28;20210;-72
2022/03/18 07:43:10;;;;;;;12.50;5.15;;;6.50;75.70;;;6.70;64.21;103627.09;4961966;28;20191;-72
2022/03/18 07:45:41;;;;;;;26.38;13.98;;;6.60;73.60;;;6.82;63.75;103639.69;4979846;28;20253;-76
2022/03/18 07:48:11;;;;;;;13.77;5.93;;;6.80;70.40;;;6.79;63.96;103653.34;4981025;28;20195;-73
2022/03/18 07:50:40;;;;;;;16.85;6.28;;;6.70;68.30;;;6.85;63.73;103650.22;4974071;28;20215;-74
2022/03/18 07:53:11;;;;;;;14.73;4.72;;;6.80;66.30;;;6.97;62.89;103655.56;4976608;28;20272;-71
2022/03/18 07:55:41;;;;;;;9.90;4.35;;;7.00;61.10;;;6.83;63.71;103665.59;4984898;28;20536;-73
2022/03/18 07:58:10;;;;;;;18.35;5.10;;;6.80;61.70;;;6.94;63.54;103665.69;4982225;28;20644;-72
2022/03/18 08:00:42;;;;;;;8.95;3.63;;;6.90;61.70;;;7.03;62.78;103678.50;4991611;28;20215;-73
2022/03/18 08:03:12;;;;;;;17.92;4.75;;;7.00;58.60;;;6.98;63.03;103677.97;4985570;28;20199;-72
2022/03/18 08:05:42;;;;;;;17.52;4.82;;;7.00;56.80;;;7.13;62.91;103674.16;4984811;28;20308;-74
2022/03/18 08:08:11;;;;;;;12.90;5.15;;;7.10;57.30;;;7.40;62.32;103672.13;4980870;28;20184;-72
2022/03/18 08:10:40;;;;;;;14.55;3.80;;;7.30;55.80;;;7.61;61.21;103668.78;4984239;28;20682;-74
2022/03/18 08:13:15;;;;;;;12.35;5.78;;;7.50;51.80;;;7.55;61.53;103670.09;4976700;28;20681;-73
2022/03/18 08:15:46;;;;;;;16.80;4.30;;;7.50;49.60;;;7.87;60.96;103675.75;4976542;28;20208;-75
2022/03/18 08:18:16;;;;;;;19.73;3.88;;;7.70;49.30;;;7.74;60.50;103675.00;4992843;28;20214;-72
2022/03/18 08:20:45;;;;;;;13.77;4.55;;;7.80;44.10;;;7.48;61.11;103674.25;4983836;28;20221;-72
2022/03/18 08:23:16;;;;;;;17.30;4.90;;;7.60;43.70;;;7.32;61.08;103681.72;4991701;28;20205;-73
2022/03/18 08:25:45;;;;;;;21.52;6.40;;;7.40;43.90;;;7.56;60.92;103676.34;4990915;28;20201;-74
2022/03/18 08:28:14;;;;;;;14.80;3.33;;;7.50;43.80;;;7.64;60.58;103680.22;4978055;28;20226;-74
2022/03/18 08:30:45;;;;;;;17.38;4.55;;;7.60;43.50;;;7.80;60.53;103682.59;4986823;28;20476;-74
2022/03/18 08:33:14;;;;;;;11.38;3.92;;;7.70;43.00;;;7.94;59.83;103685.09;4984198;28;20179;-72
2022/03/18 08:35:43;;;;;;;14.73;5.05;;;7.80;40.90;;;7.85;60.09;103688.50;4986789;28;20284;-73
2022/03/18 08:38:12;;;;;;;13.57;5.00;;;7.80;39.70;;;7.85;60.07;103699.28;4991923;28;20211;-73
2022/03/18 08:40:42;;;;;;;14.98;5.07;;;7.80;39.30;;;8.13;59.87;103698.06;4957112;28;20227;-72
2022/03/18 08:43:11;;;;;;;18.65;4.20;;;8.00;40.10;;;8.24;59.28;103696.22;4983269;28;20201;-73
2022/03/18 08:45:40;;;;;;;12.57;3.58;;;8.20;38.20;;;8.27;58.90;103700.53;4983032;28;20218;-74
2022/03/18 08:48:11;;;;;;;14.70;5.30;;;8.30;35.90;;;8.40;58.54;103708.56;4989552;28;20198;-72
2022/03/18 08:50:40;;;;;;;17.83;7.28;;;8.30;34.30;;;8.46;58.32;103708.09;4986000;28;20210;-74
2022/03/18 08:53:10;;;;;;;16.00;7.90;;;8.40;33.50;;;8.43;58.16;103717.25;4986892;28;20233;-71
2022/03/18 08:55:40;;;;;;;14.18;4.57;;;8.40;32.20;;;8.62;57.94;103722.94;4989402;28;20194;-71
2022/03/18 08:58:10;;;;;;;23.65;7.97;;;8.50;31.70;;;8.81;57.66;103733.13;4983787;28;20207;-73
2022/03/18 09:00:39;;;;;;;16.42;4.65;;;8.70;30.90;;;8.85;57.32;103731.06;4980287;28;20211;-73
2022/03/18 09:03:09;;;;;;;12.85;4.47;;;8.70;29.80;;;8.89;57.31;103744.22;4990298;28;20211;-72
2022/03/18 09:05:39;;;;;;;12.13;5.30;;;8.80;29.70;;;8.76;57.49;103734.50;4997795;28;20207;-72
2022/03/18 09:08:08;;;;;;;15.00;4.20;;;8.80;29.10;;;8.62;58.08;103732.88;4990487;28;20195;-73
2022/03/18 09:10:37;;;;;;;18.90;3.83;;;8.70;29.30;;;8.89;57.61;103746.91;4987059;28;20239;-72
2022/03/18 09:13:10;;;;;;;17.33;5.50;;;8.80;29.60;;;8.80;57.51;103744.09;4993295;28;20214;-72
2022/03/18 09:15:39;;;;;;;11.90;4.88;;;8.80;28.60;;;8.96;57.39;103752.66;4988849;28;20230;-72
2022/03/18 09:18:08;;;;;;;13.85;4.35;;;8.90;28.80;;;9.01;57.13;103743.22;4980896;28;20710;-73
2022/03/18 09:20:39;;;;;;;13.60;4.95;;;8.90;28.20;;;9.12;57.18;103745.91;4983645;28;20210;-72
2022/03/18 09:23:09;;;;;;;14.82;6.60;;;9.00;28.20;;;9.24;56.91;103745.94;4982445;28;20183;-72
2022/03/18 09:25:38;;;;;;;14.63;4.55;;;9.10;27.80;;;9.30;56.89;103756.22;4983464;28;20618;-73
2022/03/18 09:28:07;;;;;;;14.65;5.65;;;9.20;27.50;;;9.31;56.89;103760.63;4980058;28;20562;-74
2022/03/18 09:30:52;;;;;;;13.15;5.40;;;9.20;27.30;;;9.37;56.50;103752.91;4981050;28;20225;-72
2022/03/18 09:33:21;;;;;;;16.55;6.00;;;9.30;26.20;;;9.58;56.31;103753.00;4980336;28;20219;-75
2022/03/18 09:35:52;;;;;;;15.73;6.13;;;9.50;26.50;;;9.77;55.78;103750.47;4978111;28;20534;-72
2022/03/18 09:38:21;;;;;;;20.92;7.15;;;9.60;25.50;;;9.39;56.56;103763.59;4978415;28;20187;-73
2022/03/18 09:40:50;;;;;;;12.75;4.80;;;9.40;25.20;;;9.43;56.82;103762.38;4976995;28;20213;-73
2022/03/18 09:43:35;;;;;;;14.75;6.35;;;9.30;26.20;;;9.62;56.80;103767.97;4983459;28;20191;-73
2022/03/18 09:46:05;;;;;;;17.73;6.03;;;9.50;26.40;;;9.62;56.27;103769.81;4980966;28;20203;-72
2022/03/18 09:48:55;;;;;;;11.50;6.35;;;9.60;25.30;;;9.72;56.22;103768.94;4977393;28;20184;-73
2022/03/18 09:51:26;;;;;;;11.70;5.85;;;9.70;25.20;;;9.44;56.77;103774.91;4983628;28;20191;-73
2022/03/18 09:54:27;;;;;;;21.75;8.13;;;9.60;25.00;;;9.77;56.00;103771.25;4981594;28;20565;-73
2022/03/18 09:56:56;;;;;;;14.15;6.20;;;9.70;25.00;;;9.92;55.53;103765.41;4957103;28;20211;-73
2022/03/18 09:59:27;;;;;;;13.93;7.05;;;9.80;24.10;;;10.16;55.16;103772.50;4989226;28;20743;-73
2022/03/18 10:02:36;;;;;;;23.45;11.02;;;9.90;23.70;;;10.40;54.55;103762.28;4986415;28;20725;-73
2022/03/18 10:05:13;;;;;;;22.95;6.22;;;10.10;22.50;;;10.37;53.99;103765.25;4979514;28;20216;-73
2022/03/18 10:07:56;;;;;;;14.15;6.47;;;10.30;20.60;;;10.32;54.71;103770.19;4992530;28;20669;-72
2022/03/18 10:10:26;;;;;;;19.50;6.03;;;10.20;21.20;;;10.52;54.21;103773.91;4986105;28;20216;-72
2022/03/18 10:13:01;;;;;;;15.38;5.90;;;10.40;20.70;;;10.56;54.09;103775.34;4991092;28;20682;-75
2022/03/18 10:15:31;;;;;;;26.50;12.93;;;10.50;20.50;;;10.47;54.02;103771.59;4980286;28;20186;-74
2022/03/18 10:18:01;;;;;;;15.50;7.10;;;10.40;19.70;;;10.46;53.81;103776.16;4988923;28;20518;-73
2022/03/18 10:20:33;;;;;;;12.30;6.10;;;10.50;19.40;;;10.44;53.71;103771.88;4974908;28;20470;-74
2022/03/18 10:23:22;;;;;;;17.40;6.90;;;10.40;18.80;;;10.62;53.63;103778.41;4975616;28;20921;-72
2022/03/18 10:25:54;;;;;;;19.33;10.23;;;10.40;19.30;;;10.88;53.20;103766.16;4975463;28;20683;-76
2022/03/18 10:28:41;;;;;;;16.63;7.40;;;10.60;18.90;;;11.17;52.07;103760.00;4975744;28;20529;-74
2022/03/18 10:31:18;;;;;;;12.50;6.73;;;10.90;17.90;;;11.15;50.73;103767.41;4975548;28;20693;-73
2022/03/18 10:39:34;;;;;;;16.23;7.27;;;11.00;14.20;;;10.64;52.19;103757.47;4973878;28;20482;-73
2022/03/18 10:42:06;;;;;;;21.37;7.40;;;10.70;15.00;;;10.64;52.06;103760.19;4974910;28;20560;-73
2022/03/18 10:44:49;;;;;;;9.77;4.90;;;10.60;14.90;;;10.94;51.24;103762.03;4975005;28;20448;-74
2022/03/18 10:47:30;;;;;;;18.23;5.30;;;10.80;14.30;;;11.34;50.80;103768.34;4974681;28;20427;-74
2022/03/18 10:50:23;;;;;;;12.20;6.67;;;11.00;14.60;;;11.46;50.96;103766.38;4957765;28;20542;-73
2022/03/18 10:53:08;;;;;;;10.30;6.20;;;11.30;14.10;;;11.62;50.44;103766.69;4975511;28;20430;-75